Tiempo atmosférico en la estación meteorológica de San Clemente, Cuenca (728 m.)



Fecha
DESCASC
Temp. máxima en grados centígrados (hora)
DESCASC
Temp. mínima en grados centígrados (hora)
DESCASC
Temp. media en grados centígrados
DESCASC
Racha de viento máxima en m/sg (hora)
DESCASC
Velocidad máxima media en intervalos de 10 minutos(hora)
DESCASC
Precipitaciones diarias en mm
DESCASC
Precipitaciones de 00:00 a 06:00 en mm
DESCASC
Precipitaciones de 06:00 a 12:00 en mm
DESCASC
Precipitaciones de 12:00 a 18:00 en mm
DESCASC
Precipitaciones de 18:00 a 24:00 en mm
DESCASC
28-02-2021 12.3 (14:30) 4.2 (04:50) 8.3 14.44 (10:50) 8.33 (12:20) 0 0 0 0 0
27-02-2021 16.4 (16:10) 4.1 (07:40) 10.2 9.44 (00:40) 6.11 (00:40) 0 0 0 0 0
26-02-2021 15 (15:00) 6.2 (23:59) 10.6 10.83 (05:40) 7.22 (05:40) 0 0 0 0 0
25-02-2021 14.5 (16:10) 6.1 (00:00) 10.3 12.78 (16:30) 6.94 (16:00) 0 0 0 0 0
24-02-2021 14.1 (15:30) 4.7 (00:00) 9.4 10.83 (13:30) 6.39 (13:00) 0 0 0 0 0
23-02-2021 12.6 (15:40) 2.1 (00:00) 7.4 8.89 (13:30) 5 (12:50) 0 0 0 0 0
22-02-2021 8.8 (17:40) 4.1 (00:00) 6.5 12.22 (01:10) 9.17 (01:00) 1.2 1.2 0 0 0
21-02-2021 11 (16:10) 6.2 (00:00) 8.6 -- (--) -- (--) 14.2 0 0 0 14.2
20-02-2021 21.1 (15:40) 5.6 (00:00) 13.4 -- (--) -- (--) 0 0 0 0 0
19-02-2021 20.3 (16:00) 1.2 (00:00) 10.7 -- (--) -- (--) 0 0 0 0 0
18-02-2021 18.2 (15:30) 1.3 (00:00) 9.8 9.72 (15:40) 6.11 (15:20) 0 0 0 0 0
17-02-2021 20 (16:30) 1.3 (00:00) 10.6 6.94 (17:10) 4.44 (17:00) 0 0 0 0 0
16-02-2021 16.9 (16:30) 3.5 (00:00) 10.2 8.61 (00:10) 4.72 (00:10) 0 0 0 0 0
15-02-2021 13.5 (15:30) 6.1 (00:00) 9.8 11.11 (15:30) 6.11 (10:50) 0 0 0 0 0
14-02-2021 15.1 (15:40) 0.8 (00:00) 8 11.67 (21:30) 5.83 (21:20) 0 0 0 0 0
13-02-2021 14.8 (16:10) 2.2 (00:00) 8.5 9.44 (16:30) 6.39 (13:30) 0 0 0 0 0
12-02-2021 14.4 (15:00) 4.6 (00:00) 9.5 16.67 (10:20) 10.83 (11:20) 0.6 0 0.6 0 0
11-02-2021 14.7 (17:00) 4.5 (00:00) 9.6 7.78 (11:10) 5.83 (11:20) 0.4 0 0.4 0 0
10-02-2021 13.8 (16:10) 5.1 (00:00) 9.5 20.83 (03:40) 13.33 (07:20) 2 1.2 0.8 0 0
09-02-2021 11.7 (14:50) 5.7 (00:00) 8.7 19.44 (13:50) 13.89 (14:10) 10.8 0 0 6.8 4
08-02-2021 -- (--) -- (--) -- -- (--) -- (--) -- 0.2 -- -- 0
07-02-2021 11.1 (16:00) 4.9 (00:00) 8 16.11 (19:30) 11.39 (19:30) 0.2 0 0 0 0.2
06-02-2021 10.6 (13:50) 6.8 (00:00) 8.7 13.33 (12:10) 9.44 (12:10) 3 2.6 0.2 0 0.2
05-02-2021 15.7 (15:20) 7 (00:00) 11.3 14.72 (12:50) 8.06 (11:00) 3.8 0 0 0 3.8
04-02-2021 18.8 (16:20) 4.8 (00:00) 11.8 10.56 (13:20) 5.83 (16:30) 0 0 0 0 0
03-02-2021 14.9 (15:30) 6.7 (00:00) 10.8 7.5 (12:30) 5.28 (10:50) 0 0 0 0 0
02-02-2021 14.3 (16:00) 6.5 (00:00) 10.4 10.83 (12:40) 7.5 (12:40) 0 0 0 0 0
01-02-2021 14.2 (15:00) 7 (00:00) 10.6 17.78 (07:40) 12.22 (06:10) 0.2 0.2 0 0 0
31-01-2021 11 (23:20) 5.5 (00:00) 8.3 18.06 (17:20) 11.94 (19:00) 2.2 0 0 1.8 0.4
30-01-2021 12.2 (14:50) 6.1 (00:00) 9.1 19.17 (14:20) 13.61 (15:40) 9.2 0 9.2 0 0

Gráficas

Temp. máximas Temp. mínimas Temp. medias Precipitaciones Rachas de viento máximas Velocidades máximas media en intervalos de 10 minutos

Datos horarios

Fecha y hora oficial Temperatura (ºC) Velocidad del viento (km/h) Dirección del viento Racha (km/h) Dirección de racha Precipitación (mm) Presión (hPa) Tendencia (hPa) Humedad (%)
2021-02-28 23:00:00 6.8 19 Sur 41 Sur 0 936.8 -- 82
2021-02-28 22:00:00 7 20 Sur 37 Sur 0 936.4 -- 78
2021-02-28 21:00:00 7.8 18 Sur 37 Sudoeste 0 936.1 -- 76
2021-02-28 20:00:00 8.6 19 Sur 41 Sur 0 936 -- 76
2021-02-28 19:00:00 9.6 22 Sur 41 Sudoeste 0 935.6 -- 69
2021-02-28 18:00:00 10.7 20 Sudoeste 48 Sudoeste 0 935.3 -- 60
2021-02-28 17:00:00 11.4 19 Sudoeste 43 Sudoeste 0 935.3 -- 57
2021-02-28 16:00:00 11.4 21 Sudoeste 45 Sudoeste 0 935.1 -- 56
2021-02-28 15:00:00 11.4 24 Sudoeste 48 Sur 0 935.5 -- 53
2021-02-28 14:00:00 11.1 22 Sudoeste 48 Sur 0 936 -- 55
2021-02-28 13:00:00 10.6 23 Sudoeste 52 Sur 0 936.6 -- 58
2021-02-28 12:00:00 10.9 23 Sudoeste 50 Sudoeste 0 937 -- 62
2021-02-28 11:00:00 9.4 29 Sudoeste 52 Sudoeste 0 937 -- 66
2021-02-28 10:00:00 8.1 23 Sudoeste 38 Sudoeste 0 936.9 -- 72
2021-02-28 09:00:00 6.7 17 Sur 33 Sur 0 936.5 -- 75
2021-02-28 08:00:00 5.2 14 Sur 28 Sur 0 936.3 -- 81
2021-02-28 07:00:00 5.3 14 Sudoeste 28 Sudoeste 0 936.5 -- 80
2021-02-28 06:00:00 5.5 17 Sur 40 Sudoeste 0 936.7 -- 81
2021-02-28 05:00:00 5.1 19 Sudoeste 35 Sudoeste 0 936.9 -- 82
2021-02-28 04:00:00 5.2 17 Sur 33 Sur 0 936.9 -- 87
2021-02-28 03:00:00 4.7 15 Sur 40 Sur 0 937.4 -- 90
2021-02-28 02:00:00 5.7 20 Sur 36 Sudoeste 0 937 -- 80
2021-02-28 01:00:00 6.2 15 Sur 28 Sur 0 937.2 -- 77
2021-02-28 00:00:00 7.2 17 Sur 31 Sur 0 937.1 -- 71
2021-02-27 23:00:00 8 14 Sur 25 Sur 0 937.1 -- 67
2021-02-27 22:00:00 8.6 9 Sur 20 Sur 0 936.9 -- 68
2021-02-27 21:00:00 9.3 13 Sur 19 Sur 0 936.5 -- 61
2021-02-27 20:00:00 9.9 11 Sudeste 16 Sudeste 0 936.6 -- 57
2021-02-27 19:00:00 12.5 10 Sudeste 21 Sur 0 936.7 -- 43
2021-02-27 18:00:00 14.8 12 Sur 23 Sur 0 936.7 -- 31
2021-02-27 17:00:00 16 13 Sudoeste 25 Sudoeste 0 937 -- 28
2021-02-27 16:00:00 16.3 13 Sur 30 Sudoeste 0 937.3 -- 28
2021-02-27 15:00:00 15.7 16 Sudoeste -- -- -- 938.1 -- 33
2021-02-27 14:00:00 14.5 15 Sudoeste 29 Sudoeste 0 938.8 -- 42
2021-02-27 13:00:00 13.2 16 Sur 30 Sudoeste 0 939.8 -- 54
2021-02-27 12:00:00 11 16 Sur 26 Sur 0 940.5 -- 68
2021-02-27 11:00:00 8.4 13 Sur 22 Sur 0 940.8 -- 81
2021-02-27 10:00:00 5.4 12 Sur 19 Sur 0 940.9 -- 93
2021-02-27 09:00:00 4.6 13 Sur 21 Sur 0 941 -- 98
2021-02-27 08:00:00 4.2 12 Sudeste 26 Sudeste 0 940.5 -- 98
2021-02-27 07:00:00 4.7 15 Sur 23 Sur 0 940.6 -- 97
2021-02-27 06:00:00 4.9 11 Sur 24 Sur 0 940.5 -- 97
2021-02-27 05:00:00 4.9 11 Sur 24 Sur 0 940.7 -- 97
2021-02-27 04:00:00 5.1 14 Sur 24 Sur 0 941 -- 98
2021-02-27 03:00:00 5.4 17 Sur 27 Sur 0 941.6 -- 98
2021-02-27 02:00:00 5.5 14 Sur 26 Sur 0 941.9 -- 96
2021-02-27 01:00:00 6 18 Sur 34 Sur 0 942 -- 97
2021-02-27 00:00:00 6.3 12 Sur 23 Sur 0 942.3 -- 90
2021-02-26 23:00:00 7 15 Sur 26 Sur 0 942.5 -- 86
2021-02-26 22:00:00 7.3 7 Sur 14 Sudeste 0 942.3 -- 83
2021-02-26 21:00:00 8.3 8 Sudeste 17 Sur 0 942.1 -- 78
2021-02-26 20:00:00 9.7 9 Sur 18 Sur 0 942.2 -- 71
2021-02-26 19:00:00 11 11 Sudeste 24 Sur 0 941.9 -- 67
2021-02-26 18:00:00 12.8 12 Sur 28 Sudoeste 0 941.7 -- 59
2021-02-26 17:00:00 13.5 15 Sur 30 Sur 0 941.7 -- 59
2021-02-26 16:00:00 13.7 19 Sur 33 Sudeste 0 941.9 -- 56
2021-02-26 15:00:00 14.7 15 Sur 30 Sur 0 942.3 -- 52
2021-02-26 14:00:00 13.2 17 Sur 31 Sur 0 943 -- 58
2021-02-26 13:00:00 12.1 15 Sur 35 Sudoeste 0 943.7 -- 65
2021-02-26 12:00:00 11 22 Sur 38 Sur 0 944 -- 68
2021-02-26 11:00:00 9.3 20 Sur 37 Sudoeste 0 944.2 -- 76
2021-02-26 10:00:00 8.3 18 Sur 34 Sur 0 944 -- 81
2021-02-26 09:00:00 7.7 17 Sur 39 Sur 0 943.6 -- 85
2021-02-26 08:00:00 7 21 Sur 38 Sur 0 942.9 -- 87
2021-02-26 07:00:00 6.9 19 Sur 38 Sur 0 942.6 -- 87
2021-02-26 06:00:00 7.1 24 Sur 39 Sur 0 942.6 -- 87
2021-02-26 05:00:00 7.2 20 Sur 36 Sur 0 942.4 -- 90
2021-02-26 04:00:00 7.3 23 Sur 33 Sur 0 942.8 -- 90
2021-02-26 03:00:00 7.2 21 Sur 32 Sur 0 943.2 -- 91
2021-02-26 02:00:00 7.6 20 Sur 35 Sur 0 943.5 -- 92
2021-02-26 01:00:00 8.1 18 Sur 25 Sur 0 943.9 -- 92
2021-02-26 00:00:00 8.2 13 Sur 27 Sur 0 944 -- 92
2021-02-25 23:00:00 8.8 13 Sur 36 Sur 0 943.5 -- 90
2021-02-25 22:00:00 9.4 17 Sur 32 Sur 0 943.2 -- 87
2021-02-25 21:00:00 10.4 16 Sur 31 Sur 0 942.7 -- 81
2021-02-25 20:00:00 11.1 17 Sur 31 Sur 0 942.1 -- 72
2021-02-25 19:00:00 11.9 16 Sur 31 Sudoeste 0 941.6 -- 67
2021-02-25 18:00:00 13.3 18 Sur 39 Sur 0 941.3 -- 63
2021-02-25 17:00:00 13.8 25 Sudoeste 46 Sur 0 941.2 -- 57
2021-02-25 16:00:00 14.3 25 Sur 42 Sudoeste 0 941.4 -- 55
2021-02-25 15:00:00 13.9 22 Sudoeste 40 Sudoeste 0 942 -- 61
2021-02-25 14:00:00 12.7 18 Sur 35 Sudoeste 0 942.7 -- 68
2021-02-25 13:00:00 10.6 19 Sur 36 Sudoeste 0 943.5 -- 76
2021-02-25 12:00:00 9.9 17 Sur 37 Sur 0 944 -- 80
2021-02-25 11:00:00 9.6 18 Sur 37 Sur 0 943.9 -- 80
2021-02-25 10:00:00 8.3 15 Sur 33 Sur 0 944.2 -- 84
2021-02-25 09:00:00 7.5 15 Sur 31 Sur 0 943.7 -- 85
2021-02-25 08:00:00 6.4 15 Sur 32 Sur 0 943 -- 89
2021-02-25 07:00:00 6.1 17 Sur 28 Sur 0 943.2 -- 90
2021-02-25 06:00:00 6.3 18 Sur 29 Sur 0 943.3 -- 92
2021-02-25 05:00:00 6.6 14 Sur 32 Sur 0 943.2 -- 88
2021-02-25 04:00:00 6.9 17 Sur 32 Sur 0 943.3 -- 89
2021-02-25 03:00:00 7.2 18 Sur 36 Sudoeste 0 943.6 -- 87
2021-02-25 02:00:00 7.3 18 Sur 30 Sudoeste 0 944.1 -- 90
2021-02-25 01:00:00 7.9 17 Sur 33 Sur 0 944.5 -- 90
2021-02-25 00:00:00 8 15 Sur 27 Sudoeste 0 944.8 -- 92
2021-02-24 23:00:00 7.9 14 Sur 28 Sudoeste 0 944.9 -- 90
2021-02-24 22:00:00 8.3 15 Sur 27 Sur 0 944.8 -- 87
2021-02-24 21:00:00 8.7 13 Sur 23 Sur 0 944.6 -- 80
2021-02-24 20:00:00 9.8 11 Sur 21 Sur 0 944.6 -- 75
2021-02-24 19:00:00 11.2 13 Sur 28 Sur 0 944.5 -- 71
2021-02-24 18:00:00 13 16 Sur 33 Sur 0 944.4 -- 62
2021-02-24 17:00:00 13.7 18 Sur 31 Sudoeste 0 944.5 -- 57
2021-02-24 16:00:00 13.2 15 Sur 32 Sudoeste 0 945.2 -- 66
2021-02-24 15:00:00 13.5 18 Sudoeste 32 Sudoeste 0 945.7 -- 65
2021-02-24 14:00:00 11.2 15 Sudoeste 39 Sudoeste 0 946.7 -- 74
2021-02-24 13:00:00 10.9 23 Sudoeste 37 Sudoeste 0 947.4 -- 75
2021-02-24 12:00:00 9.9 17 Sudoeste 31 Sudoeste 0 948.2 -- 80
2021-02-24 11:00:00 8.9 13 Sudoeste 33 Sudoeste 0 948.6 -- 82
2021-02-24 10:00:00 8.4 17 Sudoeste 33 Sur 0 948.3 -- 88
2021-02-24 09:00:00 7.1 14 Sudoeste 34 Sudoeste 0 948.1 -- 90
2021-02-24 08:00:00 7 13 Sur 24 Sur 0 947.9 -- 96
2021-02-24 07:00:00 6.3 12 Sur 30 Sur 0 947.7 -0.4 97
2021-02-24 06:00:00 5.5 16 Sur 28 Sur 0 947.7 -0.8 98
2021-02-24 05:00:00 5.1 8 Sur 22 Sur 0 947.9 -- 97
2021-02-24 04:00:00 5.6 12 Sur 25 Sur 0 948.1 -- 96
2021-02-24 03:00:00 5.7 15 Sur 30 Sur 0 948.5 -- 96
2021-02-24 02:00:00 5.7 17 Sur 27 Sur 0 949.1 0 91
2021-02-24 01:00:00 4.7 9 Sur 14 Sur 0 949.4 -- 93
2021-02-24 00:00:00 5.2 9 Sur 14 Sur 0 949.5 -- 92
2021-02-23 23:00:00 6.8 8 Sur 17 Sudoeste 0 949.1 -- 85
2021-02-23 22:00:00 7.4 8 Sudoeste 13 Sudoeste 0 948.8 -- 81
2021-02-23 21:00:00 6.4 9 Sudeste 16 Sur 0 948.1 1 84
2021-02-23 20:00:00 7.6 8 Sudeste 14 Sur 0 947.9 -- 82
2021-02-23 19:00:00 9.3 9 Sur 18 Sur 0 947.2 -- 73
2021-02-23 18:00:00 11.4 13 Sur 27 Sur 0 947.1 -- 60
2021-02-23 17:00:00 11.8 14 Sur 27 Sur 0 946.9 -- 59
2021-02-23 16:00:00 12.3 16 Sur 28 Sur 0 947 -- 58
2021-02-23 15:00:00 11.8 14 Sur 27 Sur 0 947.1 -- 60
2021-02-23 14:00:00 11.8 14 Sur 32 Sur 0 947.1 -- 60
2021-02-23 13:00:00 10.6 17 Sur 31 Sur 0 947.6 -- 66
2021-02-23 12:00:00 9.4 15 Sudoeste 28 Sudoeste 0 947.8 -- 72
2021-02-23 11:00:00 9.1 10 Sudoeste 25 Sur 0 947.6 -- 72
2021-02-23 10:00:00 8.4 13 Sur 22 Sur 0 946.9 -- 73
2021-02-23 09:00:00 6 7 Sur 11 Sur 0 946.3 -- 87
2021-02-23 08:00:00 2.2 4 Este 8 Este 0 945 -- 95
2021-02-23 07:00:00 2.8 3 Este 10 Este 0 944.2 -- 93
2021-02-23 06:00:00 3.9 6 Sudeste 9 Sudeste 0 943.6 -- 93
2021-02-23 05:00:00 4.5 4 Sudeste 7 Sudeste 0 943.3 -- 94
2021-02-23 04:00:00 4.5 5 Nordeste 6 Norte 0 942.9 -- 93
2021-02-23 03:00:00 5.4 0 Calma 4 Sur 0 942.3 -- 90
2021-02-23 02:00:00 5.7 0 Calma 8 Norte 0 941.9 -- 91
2021-02-23 01:00:00 5.7 6 Norte 7 Norte 0 941.2 -- 91
2021-02-23 00:00:00 5.9 3 Norte 7 Nordeste 0 940.6 -- 88
2021-02-22 23:00:00 6.1 5 Norte 14 Nordeste 0 940.1 -- 87
2021-02-22 22:00:00 6.6 11 Nordeste 15 Este 0 939.6 -- 81
2021-02-22 21:00:00 6.8 10 Nordeste 15 Nordeste 0 938.9 -- 82
2021-02-22 20:00:00 7.2 9 Nordeste 22 Este 0 938.3 -- 78
2021-02-22 19:00:00 7.8 13 Nordeste 25 Nordeste 0 937.4 -- 72
2021-02-22 18:00:00 8.4 21 Nordeste 32 Nordeste 0 936 -- 68
2021-02-22 17:00:00 8.6 22 Nordeste 30 Norte 0 935.2 -- 67
2021-02-22 16:00:00 8.2 22 Nordeste 32 Nordeste 0 934.6 -- 69
2021-02-22 15:00:00 7.7 20 Norte 32 Norte 0 934 -- 74
2021-02-22 14:00:00 7.2 23 Norte 38 Norte 0 933.9 -- 74
2021-02-22 13:00:00 6.7 24 Norte 40 Norte 0 933.7 -- 79
2021-02-22 12:00:00 6.1 28 Norte 42 Norte 0 933.6 -- 82
2021-02-22 11:00:00 5.4 27 Norte 40 Noroeste 0 933 -- 89
2021-02-22 10:00:00 4.7 28 Norte 40 Norte 0 932.4 -- 93
2021-02-22 09:00:00 4.2 26 Norte 38 Norte 0 931.7 -- 94
2021-02-22 08:00:00 4.1 27 Norte 40 Norte 0 930.2 -- 94
2021-02-22 07:00:00 4.5 27 Norte 43 Norte 0 929.3 1.9 94
2021-02-22 06:00:00 5.1 27 Norte 40 Norte 0 928.4 -- 94
2021-02-22 05:00:00 5.3 27 Norte 39 Noroeste 0 927.9 -- 95
2021-02-22 04:00:00 5.1 23 Norte 39 Norte 0.2 927.4 -- 96
2021-02-22 03:00:00 5.1 20 Norte 33 Norte 0 927.2 -- 96
2021-02-22 02:00:00 5.2 23 Norte 44 Norte 0.2 926.5 -- 97
2021-02-22 01:00:00 5.4 33 Norte 44 Norte 0.8 925.8 -- 97
2021-02-22 00:00:00 6.2 26 Noroeste 38 Noroeste 0.8 924.8 -- 96
2021-02-21 23:00:00 6.6 27 Noroeste 43 Noroeste 2 924.3 -- 95
2021-02-21 22:00:00 7.4 22 Norte 31 Norte 3.2 923.5 1.9 95
2021-02-21 21:00:00 8 22 Noroeste -- -- 8.2 923 -- 95
2021-02-21 20:00:00 9.8 11 Sudoeste 26 Sudoeste 0 922.1 -- 89
2021-02-21 19:00:00 10.2 13 Sur 35 Sudoeste 0 921.6 -- 83
2021-02-21 18:00:00 10.4 19 Sur 40 Sur 0 921.1 -- 79
2021-02-21 17:00:00 10.6 22 Sur 37 Sudoeste 0 920.8 -- 76
2021-02-21 16:00:00 10.8 -- -- -- -- 0 921.2 -- 74
2021-02-21 15:00:00 9.9 19 Sur 33 Sur 0 921.5 -- 79
2021-02-21 14:00:00 9.3 17 Sur 35 Sur 0 922.4 -- 81
2021-02-21 13:00:00 8.8 19 Sur -- -- 0 923.5 -- 84
2021-02-21 12:00:00 8.6 -- -- -- -- 0 924.5 -- 85
2021-02-21 11:00:00 7.9 16 Sur -- -- 0 924.6 -- 88
2021-02-21 10:00:00 7.3 19 Sur 32 Sur 0 925 -- 89
2021-02-21 09:00:00 7.4 17 Sur -- -- 0 925.2 -- 87
2021-02-21 08:00:00 7.4 18 Sur -- -- 0 924.7 -- 89
2021-02-21 07:00:00 7.4 -- -- -- -- 0 924.9 -- 88
2021-02-21 06:00:00 7.4 15 Sur -- -- 0 925.6 -- 88
2021-02-21 05:00:00 7.3 18 Sur 35 Sur 0 925.8 -- 88
2021-02-21 04:00:00 7.5 -- -- -- -- 0 926.8 -- 88
2021-02-21 03:00:00 7.5 16 Sur 31 Sudoeste 0 928.1 -- 87
2021-02-21 02:00:00 7.3 14 Sur -- -- 0 928.7 -- 87
2021-02-21 01:00:00 7.2 18 Sudoeste -- -- 0 929.2 -- 87
2021-02-21 00:00:00 7.2 22 Sur -- -- 0 928.7 -- 87
2021-02-20 23:00:00 7.6 -- -- -- -- 0 928.6 -- 86
2021-02-20 22:00:00 8 -- -- -- -- 0 928.8 -- 84
2021-02-20 21:00:00 9.4 -- -- -- -- 0 929 -- 75
2021-02-20 20:00:00 12.4 18 Sur -- -- 0 929 -- 57
2021-02-20 19:00:00 14.5 19 Sudoeste 35 Sudoeste 0 928.7 -- 40
2021-02-20 18:00:00 16.7 15 Sudoeste 35 Sudoeste 0 928.5 -- 33
2021-02-20 17:00:00 18.4 17 Sudoeste 39 Sudoeste 0 928.7 -- 27
2021-02-20 16:00:00 20.6 -- -- -- -- 0 928.8 -- 23
2021-02-20 15:00:00 18.9 14 Sudoeste 33 Sudoeste 0 929.3 -- 28
2021-02-20 14:00:00 18.4 17 Sudoeste 32 Sudoeste 0 930.4 -- 28
2021-02-20 13:00:00 17.7 19 Sudoeste 33 Sudoeste 0 931.7 -- 29
2021-02-20 12:00:00 15.6 20 Sudoeste 37 Sur 0 932.5 -- 37
2021-02-20 11:00:00 13 15 Sudoeste 34 Sudoeste 0 932.6 -- 44
2021-02-20 10:00:00 10.6 17 Sudoeste 35 Sudoeste 0 932.7 -- 54
2021-02-20 09:00:00 7.8 11 Sur 23 Sudoeste 0 932.5 0.1 63
2021-02-20 08:00:00 6.7 10 Sur 20 Sudoeste 0 932.1 -- 68
2021-02-20 07:00:00 6.4 10 Sur 17 Sur 0 932.5 -- 72
2021-02-20 06:00:00 5.8 9 Sur 15 Sudeste 0 932.4 -- 78
2021-02-20 05:00:00 6.2 9 Sur 17 Sur 0 932.2 -- 76
2021-02-20 04:00:00 6.4 7 Sur 14 Sudoeste 0 932.5 -1.1 77
2021-02-20 03:00:00 5.8 10 Sur 15 Sur 0 933 -- 80
2021-02-20 02:00:00 7.1 6 Sudeste 12 Sur 0 933.3 -- 79
2021-02-20 01:00:00 6.6 8 Sudeste 10 Sur 0 933.6 -- 73
2021-02-20 00:00:00 7.9 8 Sudeste 18 Sudoeste 0 934.2 -- 66
2021-02-19 23:00:00 9 12 Sudoeste 17 Sudoeste 0 934 0 59
2021-02-19 22:00:00 7.7 7 Sur 11 Sur 0 934.1 -- 58
2021-02-19 21:00:00 9.2 4 Este 8 Este 0 934 -- 53
2021-02-19 20:00:00 12 0 Calma 8 Oeste 0 934 -- 42
2021-02-19 19:00:00 15.7 6 Noroeste -- -- 0 933.5 -- 27
2021-02-19 18:00:00 18.7 14 Noroeste -- -- 0 933.5 -- 23
2021-02-19 17:00:00 20.2 -- -- -- -- 0 933.5 -1.1 19
2021-02-19 16:00:00 20 17 Noroeste -- -- 0 933.8 -- 19
2021-02-19 15:00:00 19.6 13 Noroeste 23 Oeste 0 934.1 -- 25
2021-02-19 14:00:00 18.5 8 Oeste 25 Oeste 0 934.6 -- 27
2021-02-19 13:00:00 16.9 10 Sudoeste 21 Oeste 0 935.6 -- 29
2021-02-19 12:00:00 14.9 12 Sudoeste 22 Sudoeste 0 936.4 -- 44
2021-02-19 11:00:00 12.3 10 Sudoeste 21 Sudoeste 0 936.5 -- 54
2021-02-19 10:00:00 8.6 7 Sur 11 Sudeste 0 936.6 -- 69
2021-02-19 09:00:00 4 7 Este 15 Este 0 936.5 -- 82
2021-02-19 08:00:00 1.2 12 Este 15 Este 0 936 -- 89
2021-02-19 07:00:00 1.6 8 Este 15 Este 0 935.9 -- 87
2021-02-19 06:00:00 2.6 11 Este 15 Este 0 935.6 -- 85
2021-02-19 05:00:00 2 11 Este 14 Este 0 935.2 -- 86
2021-02-19 04:00:00 3.1 9 Este 12 Este 0 935.6 -- 83
2021-02-19 03:00:00 3.1 7 Este 12 Este 0 935.9 -- 82
2021-02-19 02:00:00 3.8 3 Sudeste 8 Este 0 935.9 -- 80
2021-02-19 01:00:00 4.7 4 Sudeste 6 Sudeste 0 936 -- 76
2021-02-19 00:00:00 6.5 4 Sudoeste 9 Sudoeste 0 936.3 -- 67
2021-02-18 23:00:00 7.9 6 Noroeste 15 Nordeste 0 936 -- 63
2021-02-18 22:00:00 9.5 13 Nordeste 16 Nordeste 0 935.7 -- 56
2021-02-18 21:00:00 10.5 8 Norte 11 Norte 0 935.5 -- 52
2021-02-18 20:00:00 11.4 5 Norte 7 Norte 0 935 -- 51
2021-02-18 19:00:00 13.7 6 Norte 14 Norte 0 934.4 -- 43
2021-02-18 18:00:00 16.8 9 Norte 25 Norte 0 934 -- 34
2021-02-18 17:00:00 17.9 17 Norte 32 Norte 0 934 -- 28
2021-02-18 16:00:00 18 19 Norte 35 Norte 0 933.9 -- 24
2021-02-18 15:00:00 17.5 18 Norte 32 Norte 0 933.9 -- 27
2021-02-18 14:00:00 16.9 18 Norte 27 Norte 0 934.4 -- 34
2021-02-18 13:00:00 14.2 11 Norte 22 Norte 0 935 -- 49
2021-02-18 12:00:00 13.6 5 Noroeste 9 Sur 0 935.1 -- 53
2021-02-18 11:00:00 11.2 0 Calma 8 Sudeste 0 935.4 -- 63
2021-02-18 10:00:00 8.3 5 Sudeste 15 Sudeste 0 935.2 -- 71
2021-02-18 09:00:00 4.4 8 Sudeste 12 Este 0 935 -- 79
2021-02-18 08:00:00 1.5 6 Este 11 Este 0 934.3 -- 89
2021-02-18 07:00:00 1.8 9 Este 12 Este 0 934 -- 87
2021-02-18 06:00:00 2.1 8 Este 12 Este 0 934 -- 87
2021-02-18 05:00:00 3 8 Sudeste 14 Este 0 934 -- 85
2021-02-18 04:00:00 3.6 11 Este 17 Este 0 934.4 -- 82
2021-02-18 03:00:00 4.1 10 Sudeste 15 Este 0 934.8 -- 81
2021-02-18 02:00:00 4.3 8 Sudeste 15 Este 0 935 -- 79
2021-02-18 01:00:00 5.1 10 Este 14 Este 0 935.3 -- 76
2021-02-18 00:00:00 5.6 7 Sudeste 13 Este 0 935.8 -- 74
2021-02-17 23:00:00 6.3 6 Este 9 Sudeste 0 936.2 -- 74
2021-02-17 22:00:00 7.7 6 Este 8 Este 0 936.2 -- 69
2021-02-17 21:00:00 8.8 5 Sur 10 Sur 0 936.2 -- 65
2021-02-17 20:00:00 11.9 6 Este 8 Este 0 936 -- 51
2021-02-17 19:00:00 14.2 6 Sur 10 Nordeste 0 935.8 -- 43
2021-02-17 18:00:00 18.3 8 Nordeste 25 Norte 0 935.9 -- 31
2021-02-17 17:00:00 19.6 16 Norte 25 Norte 0 936.3 -- 24
2021-02-17 16:00:00 19.7 10 Norte 19 Norte 0 936.7 -- 27
2021-02-17 15:00:00 18.7 7 Norte 15 Norte 0 937.1 -- 30
2021-02-17 14:00:00 17.8 4 Norte 10 Oeste 0 937.9 -- 35
2021-02-17 13:00:00 16.4 6 Oeste 13 Oeste 0 938.9 -- 42
2021-02-17 12:00:00 13.8 4 Sur 11 Sur 0 939.6 -- 50
2021-02-17 11:00:00 10.4 5 Sur 10 Sudoeste 0 940.2 -- 67
2021-02-17 10:00:00 7.5 6 Sudeste 11 Este 0 940.2 -- 79
2021-02-17 09:00:00 3.2 8 Este 13 Este 0 940 -- 91
2021-02-17 08:00:00 1.4 8 Este 12 Este 0 939.9 -- 94
2021-02-17 07:00:00 1.7 7 Este 13 Este 0 939.8 -- 94
2021-02-17 06:00:00 1.9 8 Este 13 Este 0 939.9 -- 91
2021-02-17 05:00:00 2.1 11 Este 18 Este 0 939.8 -- 90
2021-02-17 04:00:00 2.7 11 Este 17 Este 0 940.2 -- 89
2021-02-17 03:00:00 3.1 12 Este 14 Este 0 940.4 -- 88
2021-02-17 02:00:00 3.8 10 Este 16 Este 0 940.4 -- 87
2021-02-17 01:00:00 4.3 9 Este 14 Este 0 940.7 -- 86
2021-02-17 00:00:00 5.4 8 Este 11 Este 0 940.9 -- 84
2021-02-16 23:00:00 6 4 Sudeste 7 Sur 0 940.9 -- 83
2021-02-16 22:00:00 7 3 Sur 14 Este 0 940.9 -- 79
2021-02-16 21:00:00 7.8 10 Este 10 Este 0 940.7 -- 76
2021-02-16 20:00:00 9.9 6 Este 8 Este 0 940.7 -- 69
2021-02-16 19:00:00 13.2 4 Noroeste 8 Norte 0 940.5 -- 57
2021-02-16 18:00:00 16 6 Norte 19 Norte 0 940.5 -- 45
2021-02-16 17:00:00 16.6 12 Norte 22 Norte 0 940.8 -- 39
2021-02-16 16:00:00 16.5 11 Norte 23 Norte 0 941.2 -- 42
2021-02-16 15:00:00 15.7 11 Norte 22 Noroeste 0 941.7 -- 45
2021-02-16 14:00:00 14.6 6 Noroeste 14 Noroeste 0 942.3 -- 53
2021-02-16 13:00:00 12.1 3 Sudoeste 15 Oeste 0 943 -- 60
2021-02-16 12:00:00 10.2 5 Sudoeste 14 Sudoeste 0 943.6 -- 69
2021-02-16 11:00:00 8 9 Sudoeste 15 Sudoeste 0 943.5 -- 78
2021-02-16 10:00:00 5 8 Sur 21 Sudoeste 0 943.6 -- 92
2021-02-16 09:00:00 3.8 10 Sur 22 Sur 0 943.1 -- 96
2021-02-16 08:00:00 3.9 17 Sur 25 Sur 0 942.7 -- 95
2021-02-16 07:00:00 3.5 11 Sudeste 19 Sur 0 942.9 -- 96
2021-02-16 06:00:00 3.7 13 Sur 22 Sur 0 943 -- 95
2021-02-16 05:00:00 3.9 14 Sur 22 Sur 0 943.5 -- 95
2021-02-16 04:00:00 4.2 12 Sur 21 Sur 0 943.9 -- 93
2021-02-16 03:00:00 4.6 14 Sur 23 Sur 0 944.4 -- 93
2021-02-16 02:00:00 5.2 13 Sur 25 Sur 0 944.8 -- 92
2021-02-16 01:00:00 5.6 14 Sur 31 Sudoeste 0 945.3 -- 90
2021-02-16 00:00:00 6.1 17 Sur 32 Sudoeste 0 945.4 -- 88
2021-02-15 23:00:00 6.8 19 Sudoeste 34 Sur 0 945.6 -- 82
2021-02-15 22:00:00 7.5 18 Sur 34 Sudoeste 0 945.4 -- 78
2021-02-15 21:00:00 8.5 19 Sur 32 Sur 0 945.3 -- 74
2021-02-15 20:00:00 9.4 18 Sur 33 Sur 0 945.1 -- 70
2021-02-15 19:00:00 10.6 16 Sur 34 Sur 0 945.1 -- 65
2021-02-15 18:00:00 12.2 18 Sudoeste 36 Sur 0 944.8 -- 58
2021-02-15 17:00:00 12.9 18 Sur 34 Sur 0 945 -- 56
2021-02-15 16:00:00 12.8 21 Sudoeste 40 Sur 0 945.3 -- 57
2021-02-15 15:00:00 13 17 Sur 36 Sur 0 945.8 -- 55
2021-02-15 14:00:00 13 16 Sur 33 Sudoeste 0 946.5 -- 57
2021-02-15 13:00:00 11.6 16 Sudoeste 32 Sudoeste 0 947.2 -- 61
2021-02-15 12:00:00 10.3 20 Sudoeste 38 Sudoeste 0 947.8 -- 67
2021-02-15 11:00:00 10.1 19 Sudoeste 40 Sur 0 947.6 -- 73
2021-02-15 10:00:00 8.9 21 Sur 39 Sur 0 947.4 -- 81
2021-02-15 09:00:00 7.5 16 Sur 29 Sudoeste 0 946.9 -- 88
2021-02-15 08:00:00 6.5 15 Sur 28 Sur 0 946.4 -- 91
2021-02-15 07:00:00 6.6 15 Sur 28 Sur 0 946.1 -- 91
2021-02-15 06:00:00 6.9 15 Sur 33 Sur 0 946.1 -- 91
2021-02-15 05:00:00 7.1 19 Sur 35 Sur 0 945.9 -- 90
2021-02-15 04:00:00 7.4 14 Sur 30 Sudoeste 0 946.5 -- 89
2021-02-15 03:00:00 7 14 Sur 27 Sur 0 946.7 -- 90
2021-02-15 02:00:00 7.4 16 Sur 30 Sur 0 947 -- 87
2021-02-15 01:00:00 7.8 18 Sur 37 Sur 0 946.7 -- 85
2021-02-15 00:00:00 7.8 16 Sur 34 Sudoeste 0 946.6 -- 85
2021-02-14 23:00:00 8.1 19 Sur 35 Sudoeste 0 946.5 -- 83
2021-02-14 22:00:00 8.1 18 Sur 42 Sur 0 946.1 -- 84
2021-02-14 21:00:00 8.7 21 Sur 38 Sur 0 945.5 -- 80
2021-02-14 20:00:00 9.7 18 Sur 36 Sur 0 945.4 -- 73
2021-02-14 19:00:00 11.3 14 Sur 32 Sur 0 944.8 0.8 66
2021-02-14 18:00:00 13.9 15 Sudoeste 31 Sudoeste 0 944.3 0.2 55
2021-02-14 17:00:00 14.9 17 Sudoeste 35 Sudoeste 0 944 -- 46
2021-02-14 16:00:00 15.1 16 Sudoeste 32 Sudoeste 0 944 -- 46
2021-02-14 15:00:00 14.7 15 Sudoeste 31 Sudoeste 0 944.1 -- 47
2021-02-14 14:00:00 13.6 15 Sudoeste 30 Sudoeste 0 944.4 -- 50
2021-02-14 13:00:00 12.3 17 Sudoeste 34 Sur 0 944.7 -- 54
2021-02-14 12:00:00 11.6 17 Sudoeste 34 Sudoeste 0 944.9 -- 59
2021-02-14 11:00:00 10.3 14 Sur 24 Sur 0 944.6 -- 63
2021-02-14 10:00:00 6.9 7 Sudeste 13 Sudeste 0 944.6 -- 79
2021-02-14 09:00:00 3.2 5 Este 11 Este 0 944.1 -- 90
2021-02-14 08:00:00 0.8 8 Este 10 Este 0 943.6 -- 93
2021-02-14 07:00:00 1.9 6 Sudeste 11 Sur 0 943 -- 93
2021-02-14 06:00:00 2.2 8 Sudeste 15 Sudeste 0 942.7 -- 91
2021-02-14 05:00:00 3.1 9 Este 17 Este 0 942.3 -- 89
2021-02-14 04:00:00 4 8 Sudeste 19 Sudeste 0 942.1 -- 86
2021-02-14 03:00:00 4 11 Este 15 Este 0 942.2 -- 86
2021-02-14 02:00:00 4.4 7 Este 17 Este 0 942.6 -- 85
2021-02-14 01:00:00 5 9 Este 16 Este 0 942.3 -- 86
2021-02-14 00:00:00 5.6 11 Este 17 Este 0 942.3 -- 84
2021-02-13 23:00:00 6.6 9 Este 18 Nordeste 0 942 -- 78
2021-02-13 22:00:00 7.1 6 Este 19 Nordeste 0 941.9 -- 77
2021-02-13 21:00:00 9.2 17 Nordeste 19 Nordeste 0 941.7 -- 68
2021-02-13 20:00:00 8.1 6 Nordeste 14 Nordeste 0 941.3 -- 71
2021-02-13 19:00:00 10.5 9 Nordeste 19 Nordeste 0 940.7 -- 58
2021-02-13 18:00:00 13.5 15 Norte 33 Norte 0 940.2 -- 45
2021-02-13 17:00:00 14.5 22 Norte 34 Norte 0 939.9 -- 40
2021-02-13 16:00:00 14.6 18 Norte 32 Norte 0 940.1 -- 51
2021-02-13 15:00:00 13.7 21 Nordeste 31 Nordeste 0 940.4 -- 51
2021-02-13 14:00:00 12.3 17 Norte 33 Norte 0 940.9 -- 63
2021-02-13 13:00:00 11.8 16 Norte 28 Norte 0 941.1 -- 66
2021-02-13 08:00:00 3.7 18 Norte 24 Norte 0 940.8 0.8 98
2021-02-13 07:00:00 3.2 17 Norte 22 Norte 0 940.5 0.6 98
2021-02-13 06:00:00 2.3 14 Norte 16 Norte 0 940.4 0.4 98
2021-02-13 05:00:00 2.5 11 Norte 17 Norte 0 940 0.3 97
2021-02-13 04:00:00 3.1 15 Norte 17 Norte 0 939.9 0.5 97
2021-02-13 03:00:00 3.3 6 Nordeste 14 Norte 0 940 1 94
2021-02-13 02:00:00 4.1 12 Norte 21 Norte 0 939.7 0.8 94
2021-02-13 01:00:00 4.5 15 Norte 20 Norte 0 939.4 0.9 91
2021-02-13 00:00:00 4.6 13 Norte 19 Norte 0 939 1 89
2021-02-12 23:00:00 5.2 14 Norte 20 Norte 0 938.9 1.1 87
2021-02-12 22:00:00 7.4 14 Norte 25 Nordeste 0 938.5 1.4 78
2021-02-12 21:00:00 7.8 14 Norte 32 Nordeste 0 938 1.5 77
2021-02-12 20:00:00 9.1 10 Nordeste 29 Nordeste 0 937.8 1.5 72
2021-02-12 19:00:00 10.7 21 Nordeste 40 Nordeste 0 937.1 1.2 65
2021-02-12 18:00:00 12.5 26 Nordeste 46 Norte 0 936.5 0.8 60
2021-02-12 17:00:00 13.2 31 Norte 48 Norte 0 936.3 0.3 56
2021-02-12 16:00:00 13.2 32 Norte 49 Norte 0 935.9 -0.1 59
2021-02-12 15:00:00 13.7 32 Norte 50 Nordeste 0 935.7 -0.2 55
2021-02-12 14:00:00 12.8 35 Norte 53 Norte 0 936 0.3 58
2021-02-12 13:00:00 12 32 Norte 46 Norte 0 936 1.2 72
2021-02-12 12:00:00 11.8 34 Norte 57 Norte 0 935.9 1.3 70
2021-02-12 11:00:00 11.6 36 Norte 60 Norte 0 935.7 1.3 76
2021-02-12 10:00:00 11 32 Norte 48 Norte 0 934.8 0.5 92
2021-02-12 09:00:00 10.1 28 Noroeste 38 Norte 0.6 934.6 -- 96
2021-02-12 08:00:00 10.1 18 Noroeste 25 Noroeste 0 934.4 -- 94
2021-02-12 07:00:00 10.3 13 Noroeste 24 Noroeste 0 934.3 -- 92
2021-02-12 06:00:00 10.4 14 Noroeste 26 Noroeste 0 934.5 -- 94
2021-02-12 05:00:00 10.5 17 Noroeste 23 Norte 0 934.5 -- 96
2021-02-12 04:00:00 10.4 10 Noroeste 14 Noroeste 0 934.8 -- 96
2021-02-12 03:00:00 10.6 8 Noroeste 11 Noroeste 0 934.8 -- 96
2021-02-12 02:00:00 10.3 3 Noroeste 7 Noroeste 0 935.2 -- 95
2021-02-12 01:00:00 10.2 4 Norte 7 Noroeste 0 935.4 -- 94
2021-02-12 00:00:00 10 0 Calma 5 Sudeste 0 935.3 -- 93
2021-02-11 23:00:00 10.5 3 Este 5 Este 0 935.6 -- 92
2021-02-11 22:00:00 10.7 2 Noroeste 8 Noroeste 0 935.8 -- 91
2021-02-11 21:00:00 10.6 4 Noroeste 9 Noroeste 0 935.9 -- 90
2021-02-11 20:00:00 11 6 Norte 13 Nordeste 0 935.7 -- 87
2021-02-11 19:00:00 12 6 Norte 13 Norte 0 935.5 -- 83
2021-02-11 18:00:00 13.1 11 Norte 26 Norte 0 935.3 -- 79
2021-02-11 17:00:00 14.6 19 Norte 26 Norte 0 935.2 -- 69
2021-02-11 16:00:00 13.7 16 Norte 24 Norte 0 935.3 -- 76
2021-02-11 15:00:00 13 17 Norte 25 Norte 0 935.7 -- 83
2021-02-11 14:00:00 12.8 21 Norte 28 Norte 0 936.2 -- 83
2021-02-11 13:00:00 12 20 Norte 27 Norte 0 936.8 -- 90
2021-02-11 12:00:00 10.8 19 Norte 28 Norte 0.2 936.9 -- 98
2021-02-11 11:00:00 10 17 Norte 25 Norte 0 936.9 -- 99
2021-02-11 10:00:00 8.3 4 Norte 8 Norte 0.2 936.7 -- 99
2021-02-11 09:00:00 7.5 4 Nordeste 10 Nordeste 0 936.3 -- 98
2021-02-11 08:00:00 7.2 6 Norte 14 Norte 0 935.7 -- 98
2021-02-11 07:00:00 7.2 10 Nordeste 14 Nordeste 0 935.3 -- 98
2021-02-11 06:00:00 6.7 9 Norte 14 Nordeste 0 935.3 -- 98
2021-02-11 05:00:00 6.5 9 Norte 15 Nordeste 0 935.1 -- 98
2021-02-11 04:00:00 6 12 Nordeste 18 Norte 0 935.2 -- 98
2021-02-11 03:00:00 5.4 12 Norte 17 Norte 0 935.1 -- 97
2021-02-11 02:00:00 4.9 10 Norte 16 Norte 0 935.4 -- 96
2021-02-11 01:00:00 5 4 Norte 18 Norte 0 935 -- 93
2021-02-11 00:00:00 5.1 8 Norte 17 Norte 0 934.5 -- 92
2021-02-10 23:00:00 6 14 Norte 22 Norte 0 934 -- 88
2021-02-10 22:00:00 6.4 11 Norte 18 Norte 0 933.2 -- 90
2021-02-10 21:00:00 6.9 13 Norte 17 Norte 0 932.4 -- 85
2021-02-10 20:00:00 8.1 13 Norte 18 Norte 0 931.8 -- 79
2021-02-10 19:00:00 9.5 8 Norte 22 Norte 0 931 -- 71
2021-02-10 18:00:00 12 19 Norte 33 Norte 0 929.9 -- 64
2021-02-10 17:00:00 13.2 29 Norte 44 Norte 0 929.4 -- 56
2021-02-10 16:00:00 13.7 27 Norte 45 Norte 0 929.5 -- 51
2021-02-10 15:00:00 13.1 29 Norte 48 Norte 0 929.2 -- 51
2021-02-10 14:00:00 12.5 31 Norte 48 Nordeste 0 928.8 -- 56
2021-02-10 13:00:00 11.7 32 Norte 55 Norte 0 928.4 -- 66
2021-02-10 12:00:00 10.4 36 Norte 57 Norte 0 927.8 -- 67
2021-02-10 11:00:00 9.1 28 Norte 46 Norte 0 926.9 -- 85
2021-02-10 10:00:00 8.6 30 Norte 46 Noroeste 0 925.8 -- 90
2021-02-10 09:00:00 7.4 31 Norte 46 Norte 0.8 924.5 -- 94
2021-02-10 08:00:00 7.2 35 Norte 70 Norte 0 923.4 -- 90
2021-02-10 07:00:00 7.5 45 Norte 73 Noroeste 0 921.8 -- 86
2021-02-10 06:00:00 7.4 46 Noroeste 65 Norte 0 921.8 -- 85
2021-02-10 05:00:00 6.8 38 Noroeste 64 Norte 0.8 922.1 -- 89
2021-02-10 04:00:00 7.4 42 Noroeste 75 Noroeste 0 922.4 -- 87
2021-02-10 03:00:00 7.4 38 Norte 60 Noroeste 0.2 922.5 -- 90
2021-02-10 02:00:00 7.4 25 Noroeste 52 Noroeste 0.2 923.1 -- 94
2021-02-10 01:00:00 7.6 31 Norte 47 Norte 0 923.1 -- 90
2021-02-10 00:00:00 7.4 26 Norte 41 Noroeste 0 922.8 -- 94
2021-02-09 23:00:00 7.2 26 Norte 43 Norte 0 922.8 -- 93
2021-02-09 22:00:00 7.9 32 Norte 52 Norte 1 922.2 -- 96
2021-02-09 21:00:00 7.9 24 Norte 40 Norte 0.4 922.3 -- 98
2021-02-09 20:00:00 7.9 30 Norte 44 Norte 0.2 921.9 -- 95
2021-02-09 19:00:00 7.7 11 Norte 31 Norte 2.4 921.8 -- 97
2021-02-09 18:00:00 8.1 27 Norte 70 Norte 5.8 921.2 -- 94
2021-02-09 17:00:00 9.6 39 Noroeste 62 Noroeste 0.6 920.4 -- 92
2021-02-09 16:00:00 10 36 Noroeste 67 Noroeste 0.4 920.6 -- 90
2021-02-09 15:00:00 11 47 Noroeste 70 Noroeste 0 920.6 -- 79
2021-02-09 14:00:00 11.3 47 Noroeste 70 Noroeste 0 921.5 -- 74
2021-02-09 13:00:00 9.9 39 Noroeste 57 Noroeste 0 923.3 -- 74
2021-02-09 12:00:00 9.2 27 Noroeste 49 Noroeste 0 924.5 -- 83
2021-02-09 11:00:00 8.8 24 Noroeste 38 Noroeste 0 924.9 -- 84
2021-02-09 10:00:00 7.9 26 Noroeste 36 Noroeste 0 924.9 -- 86
2021-02-09 09:00:00 6.8 21 Noroeste 37 Noroeste 0 925.2 -- 91
2021-02-09 08:00:00 6 20 Noroeste 33 Noroeste 0 925 -- 96
2021-02-09 07:00:00 6 24 Noroeste 37 Noroeste 0 925.3 -- 95
2021-02-09 06:00:00 6.3 25 Norte 44 Norte 0 925.6 -- 90
2021-02-09 05:00:00 6.5 30 Norte 46 Norte 0 925.5 -- 89
2021-02-09 04:00:00 6.4 30 Norte 53 Norte 0 926 -- 89
2021-02-09 03:00:00 6.4 36 Norte 50 Norte 0 925.9 -- 88
2021-02-09 02:00:00 6 27 Norte 42 Norte 0 926.2 -- 89
2021-02-09 01:00:00 6 30 Norte 46 Noroeste 0 926.4 -- 88
2021-02-09 00:00:00 6 34 Noroeste 54 Norte 0 926 -- 89
2021-02-08 23:00:00 6 32 Norte 48 Norte 0 925.5 -- 88
2021-02-08 22:00:00 6.3 32 Noroeste 53 Norte 0 925 -- 87
2021-02-08 21:00:00 6.7 37 Norte 55 Norte 0 924 -- 86
2021-02-08 20:00:00 6.8 33 Noroeste 52 Noroeste 0 922.9 -- 86
2021-02-08 19:00:00 7.4 37 Noroeste 58 Norte 0 922.5 -- 85
2021-02-08 18:00:00 8.3 30 Norte 54 Norte 0 921.5 -- 72
2021-02-08 17:00:00 8.8 37 Norte 65 Norte 2 921 -- 76
2021-02-08 16:00:00 7 31 Norte 68 Norte 1.8 920.8 -- 91
2021-02-08 15:00:00 7.1 37 Norte -- -- -- 920.8 -- 94
2021-02-08 14:00:00 -- -- -- -- -- -- -- -- --
2021-02-08 13:00:00 -- -- -- -- -- -- -- -- --
2021-02-08 12:00:00 -- -- -- -- -- -- -- -- --
2021-02-08 11:00:00 -- -- -- -- -- -- -- -- --
2021-02-08 10:00:00 -- -- -- -- -- -- -- -- --
2021-02-08 09:00:00 -- -- -- -- -- -- -- -- --
2021-02-08 08:00:00 7.9 38 Noroeste 64 Noroeste 0.4 918.7 -- 91
2021-02-08 07:00:00 7.6 31 Noroeste 54 Noroeste 0.2 918.8 -- 90
2021-02-08 06:00:00 7.1 26 Noroeste 40 Noroeste 0 919.6 -- 89
2021-02-08 05:00:00 6.7 23 Noroeste 36 Noroeste 0.2 920.7 -- 91
2021-02-08 04:00:00 6 20 Noroeste 32 Noroeste 0 921.9 -- 89
2021-02-08 03:00:00 5.9 24 Noroeste 35 Noroeste 0 922.8 -- 88
2021-02-08 02:00:00 5.6 25 Noroeste 39 Noroeste 0 923.8 -- 91
2021-02-08 01:00:00 5.5 27 Noroeste 50 Noroeste 0 924.5 -- 92
2021-02-08 00:00:00 5.2 31 Noroeste 46 Norte 0 924.6 -- 94
2021-02-07 23:00:00 5 29 Norte 48 Norte 0.2 925.1 -- 94
2021-02-07 22:00:00 5.3 38 Norte 55 Norte 0 925 -- 88
2021-02-07 21:00:00 6.3 35 Norte 53 Norte 0 924.9 -- 81
2021-02-07 20:00:00 7 33 Norte 58 Norte 0 924.6 -- 76
2021-02-07 19:00:00 7.7 35 Norte 51 Norte 0 923.9 -- 74
2021-02-07 18:00:00 8.4 33 Norte 48 Norte 0 923.4 -- 73
2021-02-07 17:00:00 8.9 34 Norte 48 Noroeste 0 923.3 -- 78
2021-02-07 16:00:00 10.8 27 Norte 42 Norte 0 923.2 -- 59
2021-02-07 15:00:00 9 23 Norte 34 Norte 0 923.3 -- 73
2021-02-07 14:00:00 8.2 21 Norte 32 Norte 0 923.7 -- 74
2021-02-07 13:00:00 8.1 21 Norte 32 Norte 0 924 -- 66
2021-02-07 12:00:00 7.9 20 Norte 30 Nordeste 0 924.2 -- 65
2021-02-07 11:00:00 6.7 17 Nordeste 26 Este 0 924.3 -- 75
2021-02-07 10:00:00 6.3 14 Nordeste 22 Nordeste 0 923.7 -- 79
2021-02-07 09:00:00 5.8 9 Norte 19 Norte 0 923.1 -- 90
2021-02-07 08:00:00 5.7 12 Norte 22 Norte 0 922.5 -- 92
2021-02-07 07:00:00 6 15 Norte 27 Norte 0 921.9 -- 97
2021-02-07 06:00:00 6.1 20 Norte 27 Norte 0 921.7 -- 96
2021-02-07 05:00:00 6.3 20 Norte 32 Norte 0 921.7 -- 93
2021-02-07 04:00:00 6.8 20 Norte 27 Norte 0 921.6 -- 95
2021-02-07 03:00:00 7 19 Norte 30 Norte 0 921.7 -- 96
2021-02-07 02:00:00 7 18 Norte 24 Norte 0 921.7 -- 96
2021-02-07 01:00:00 6.9 12 Norte 18 Norte 0 921.7 -- 96
2021-02-07 00:00:00 7.2 13 Norte 20 Norte 0 921.6 -- 96
2021-02-06 23:00:00 7.3 11 Norte 14 Noroeste 0.2 921.5 -- 97
2021-02-06 22:00:00 7.3 10 Norte 16 Norte 0 921.3 -- 95
2021-02-06 21:00:00 7.5 11 Norte 17 Noroeste 0 921.1 -- 93
2021-02-06 20:00:00 7.5 16 Noroeste 31 Norte 0 920.8 -- 92
2021-02-06 19:00:00 8 19 Noroeste 32 Noroeste 0 920.2 -- 87
2021-02-06 18:00:00 8.7 23 Norte 33 Norte 0 919.7 -- 82
2021-02-06 17:00:00 9 17 Norte 33 Norte 0 919.5 -- 82
2021-02-06 16:00:00 9.1 24 Norte 38 Noroeste 0 919 -- 77
2021-02-06 15:00:00 9.6 23 Noroeste 44 Noroeste 0 918.8 -- 75
2021-02-06 14:00:00 9.8 32 Noroeste 45 Norte 0 919 -- 72
2021-02-06 13:00:00 9.3 31 Norte 48 Noroeste 0 919.5 -- 74
2021-02-06 12:00:00 10.1 30 Noroeste 42 Noroeste 0 919.9 -- 75
2021-02-06 11:00:00 9.3 18 Noroeste 24 Oeste 0 919.8 -- 83
2021-02-06 10:00:00 7.6 11 Sudoeste 20 Sur 0 919.5 -- 94
2021-02-06 09:00:00 7.7 9 Oeste 13 Oeste 0 919.3 -- 91
2021-02-06 08:00:00 7.2 7 Sudoeste 12 Sudoeste 0.2 919.1 -- 96
2021-02-06 07:00:00 7 6 Sudoeste 14 Sudoeste 0 918.9 -- 97
2021-02-06 06:00:00 7.4 7 Sudoeste 16 Sudoeste 0 919.2 -- 96
2021-02-06 05:00:00 7.5 7 Sudoeste 16 Oeste 0.2 919.1 -- 97
2021-02-06 04:00:00 7.8 10 Sudoeste 17 Noroeste 0.6 919.2 -- 96
2021-02-06 03:00:00 8 8 Sudoeste 17 Sudoeste 0 919.3 -- 95
2021-02-06 02:00:00 8.2 9 Sudoeste 18 Sur 0.2 919.5 -- 94
2021-02-06 01:00:00 8.5 6 Sudoeste 10 Sudoeste 1.6 920 -- 93
2021-02-06 00:00:00 8.6 7 Sur 23 Sur 2.6 920.2 -- 92
2021-02-05 23:00:00 8.2 10 Sur 18 Oeste 0.2 921 -- 93
2021-02-05 22:00:00 8.7 15 Oeste 31 Sudoeste 1 922.2 -- 90
2021-02-05 21:00:00 8.6 17 Sudoeste 41 Sudoeste 0 920.2 -- 86
2021-02-05 20:00:00 8.5 21 Sudoeste 43 Sur 0 919.5 -- 87
2021-02-05 19:00:00 9.3 23 Sur 41 Sur 0 918.8 -- 84
2021-02-05 18:00:00 11.2 21 Sur 43 Sur 0 918.5 -- 76
2021-02-05 17:00:00 13.2 25 Sur 44 Sudoeste 0 918.5 -- 69
2021-02-05 16:00:00 15.3 25 Sudoeste 46 Sudoeste 0 918.8 -- 57
2021-02-05 15:00:00 15 27 Sudoeste 48 Sudoeste 0 919.3 -- 54
2021-02-05 14:00:00 14.2 24 Sudoeste 46 Sudoeste 0 920.2 -- 59
2021-02-05 13:00:00 12.8 26 Sudoeste 53 Sudoeste 0 921.4 -- 67
2021-02-05 12:00:00 11.4 28 Sudoeste 48 Sudoeste 0 922.4 -- 72
2021-02-05 11:00:00 9.9 29 Sudoeste 48 Sudoeste 0 922.8 -- 78
2021-02-05 10:00:00 8.2 22 Sudoeste 40 Sudoeste 0 922.9 -- 88
2021-02-05 09:00:00 7.2 18 Sur 40 Sur 0 922.7 -- 92
2021-02-05 08:00:00 7.2 24 Sur 40 Sudoeste 0 922.2 -- 90
2021-02-05 07:00:00 7.6 22 Sur 40 Sur 0 922 -- 86
2021-02-05 06:00:00 8.3 19 Sur 36 Sur 0 922.4 -- 84
2021-02-05 05:00:00 8.7 19 Sur 35 Sur 0 923.3 -- 82
2021-02-05 04:00:00 9.6 16 Sur 27 Sur 0 923.8 -- 76
2021-02-05 03:00:00 9.4 10 Sur 23 Sur 0 924.3 -- 79
2021-02-05 02:00:00 8.5 10 Sudeste 17 Sudeste 0 924.6 -- 84
2021-02-05 01:00:00 8 12 Sudeste 20 Sudeste 0 925.2 -- 86
2021-02-05 00:00:00 9.5 13 Sudeste 18 Sudeste 0 926.3 -- 82
2021-02-04 23:00:00 7.9 8 Sudeste 14 Sudeste 0 926.6 -- 87
2021-02-04 22:00:00 9.4 9 Sudeste 17 Sudeste 0 926.6 -- 82
2021-02-04 21:00:00 9.7 10 Este 14 Este 0 926.4 -- 81
2021-02-04 20:00:00 11.2 6 Este 15 Sur 0 926.6 -- 74
2021-02-04 19:00:00 12.5 9 Nordeste 18 Nordeste 0 926.2 -- 64
2021-02-04 18:00:00 14.2 14 Nordeste 25 Norte 0 925.7 -- 59
2021-02-04 17:00:00 17.3 14 Norte 31 Noroeste 0 925.2 -- 44
2021-02-04 16:00:00 18.3 18 Noroeste 28 Noroeste 0 925 -- 38
2021-02-04 15:00:00 17.1 12 Sudoeste 35 Sudoeste 0 924.9 -- 51
2021-02-04 14:00:00 15.4 20 Sudoeste 38 Sudoeste 0 925.2 -- 54
2021-02-04 13:00:00 14.4 20 Sudoeste 36 Sudoeste 0 926.2 -- 57
2021-02-04 12:00:00 13.6 15 Sur 30 Sudoeste 0 927.1 -- 62
2021-02-04 11:00:00 10.5 11 Sur 18 Sur 0 927.9 -- 82
2021-02-04 10:00:00 7.1 6 Sur 12 Sur 0 928.3 -- 96
2021-02-04 09:00:00 5.9 4 Nordeste 13 Sudeste 0 928.6 -- 97
2021-02-04 08:00:00 5.9 0 Calma 8 Sur 0 928.8 -- 97
2021-02-04 07:00:00 5.2 4 Sur 6 Sur 0 928.6 -- 96
2021-02-04 06:00:00 5.2 5 Nordeste 9 Este 0 928.7 -- 97
2021-02-04 05:00:00 5.2 4 Este 9 Este 0 929.1 -- 96
2021-02-04 04:00:00 5.7 5 Este 9 Este 0 929.4 -- 95
2021-02-04 03:00:00 6 6 Este 10 Este 0 929.7 -- 95
2021-02-04 02:00:00 6.2 5 Este 10 Este 0 929.9 -- 95
2021-02-04 01:00:00 6.4 5 Este 8 Este 0 930.2 -- 94
2021-02-04 00:00:00 6.8 6 Sur 12 Sudeste 0 930.5 -- 93
2021-02-03 23:00:00 7 5 Sur 10 Sudoeste 0 930.5 -- 93
2021-02-03 22:00:00 7.6 6 Sudoeste 11 Sudoeste 0 930.6 -- 93
2021-02-03 21:00:00 7.9 6 Este 10 Este 0 930.5 -- 88
2021-02-03 20:00:00 9.4 4 Sudeste 10 Nordeste 0 930.5 -- 83
2021-02-03 19:00:00 11 9 Nordeste 12 Nordeste 0 930.6 -- 78
2021-02-03 18:00:00 12.5 10 Nordeste 22 Norte 0 930.4 -- 72
2021-02-03 17:00:00 13.9 16 Norte 22 Norte 0 930.3 -- 65
2021-02-03 16:00:00 14.5 12 Norte 23 Norte 0 930.6 -- 62
2021-02-03 15:00:00 13.8 13 Norte 25 Noroeste 0 930.9 -- 63
2021-02-03 14:00:00 13.4 12 Noroeste 23 Norte 0 931.7 -- 63
2021-02-03 13:00:00 11.8 14 Norte 27 Norte 0 932.5 -- 67
2021-02-03 12:00:00 11 17 Norte 25 Noroeste 0 933.2 -- 70
2021-02-03 11:00:00 9.9 17 Noroeste 26 Noroeste 0 933.5 -- 75
2021-02-03 10:00:00 9.3 14 Noroeste 19 Noroeste 0 933.1 -- 78
2021-02-03 09:00:00 8.6 13 Noroeste 18 Noroeste 0 932.6 -- 82
2021-02-03 08:00:00 8.4 13 Noroeste 17 Noroeste 0 932.4 -- 86
2021-02-03 07:00:00 8.2 12 Norte 18 Noroeste 0 932.3 -- 87
2021-02-03 06:00:00 8.3 13 Noroeste 18 Norte 0 932.2 -- 86
2021-02-03 05:00:00 8.2 10 Noroeste 19 Noroeste 0 932.2 -- 85
2021-02-03 04:00:00 8.4 12 Noroeste 18 Noroeste 0 932.6 -- 84
2021-02-03 03:00:00 8.7 9 Noroeste 18 Noroeste 0 933.1 -- 84
2021-02-03 02:00:00 8.9 13 Noroeste 22 Noroeste 0 933.4 -- 81
2021-02-03 01:00:00 9.1 15 Norte 25 Noroeste 0 933.7 -- 82
2021-02-03 00:00:00 9.2 18 Norte 27 Norte 0 933.7 -- 81
2021-02-02 23:00:00 9.3 14 Norte 23 Norte 0 933.5 -- 84
2021-02-02 22:00:00 9.9 16 Norte 22 Norte 0 933.5 -- 84
2021-02-02 21:00:00 9.5 7 Norte 17 Nordeste 0 933.4 -- 88
2021-02-02 20:00:00 9.2 5 Norte 12 Nordeste 0 933.3 -- 84
2021-02-02 19:00:00 9.9 9 Nordeste 18 Norte 0 933 -- 77
2021-02-02 18:00:00 12.5 12 Norte 29 Nordeste 0 932.8 -- 69
2021-02-02 17:00:00 13.7 22 Norte 34 Norte 0 933 -- 63
2021-02-02 16:00:00 13.9 25 Norte 34 Norte 0 933.4 -- 62
2021-02-02 15:00:00 13.7 25 Norte 36 Norte 0 933.7 -- 63
2021-02-02 14:00:00 13.8 24 Norte 39 Norte 0 934.3 -- 64
2021-02-02 13:00:00 13.5 24 Norte 39 Norte 0 934.9 -- 66
2021-02-02 12:00:00 11.5 15 Norte 26 Norte 0 935.9 -- 84
2021-02-02 11:00:00 9.2 15 Norte 31 Norte 0 936.2 -- 94
2021-02-02 10:00:00 8.1 21 Norte 29 Noroeste 0 936.1 -- 98
2021-02-02 09:00:00 7.7 18 Norte 26 Noroeste 0 935.8 -- 98
2021-02-02 08:00:00 7.6 17 Noroeste 28 Noroeste 0 935.6 -- 98
2021-02-02 07:00:00 7.7 18 Norte 30 Noroeste 0 935.9 -- 96
2021-02-02 06:00:00 7.6 18 Noroeste 31 Norte 0 935.9 -- 95
2021-02-02 05:00:00 7.4 22 Norte 34 Norte 0 935.7 -- 95
2021-02-02 04:00:00 6.8 9 Norte 14 Norte 0 935.5 -- 95
2021-02-02 03:00:00 6.9 10 Noroeste 18 Noroeste 0 935.5 -- 96
2021-02-02 02:00:00 6.6 4 Norte 23 Norte 0 935.3 -- 97
2021-02-02 01:00:00 6.8 18 Norte 25 Norte 0 935.1 -- 97
2021-02-02 00:00:00 7 18 Norte 33 Norte 0 934.7 -- 94
2021-02-01 23:00:00 7.4 27 Norte 41 Norte 0 934.6 -- 93
2021-02-01 22:00:00 8 31 Norte 48 Norte 0 934.4 -- 91
2021-02-01 21:00:00 8.9 37 Norte 53 Norte 0 934 -- 86
2021-02-01 20:00:00 9.6 35 Norte 48 Norte 0 933.7 -- 83
2021-02-01 19:00:00 10.5 28 Norte 47 Norte 0 933.6 -- 77
2021-02-01 18:00:00 11.8 37 Norte 59 Norte 0 932.7 -- 73
2021-02-01 17:00:00 13.1 39 Norte 53 Norte 0 932.4 -- 69
2021-02-01 16:00:00 14 35 Norte 57 Norte 0 932.3 -- 69
2021-02-01 15:00:00 13.8 43 Norte 60 Norte 0 932 -- 69
2021-02-01 14:00:00 12.6 37 Norte 57 Norte 0 932.5 -- 75
2021-02-01 13:00:00 12.2 31 Norte 54 Norte 0 932.9 -- 76
2021-02-01 12:00:00 11.8 37 Norte 56 Norte 0 933 -- 79
2021-02-01 11:00:00 10.7 34 Norte 57 Norte 0 932.9 -- 84
2021-02-01 10:00:00 9.4 35 Norte 54 Norte 0 932.4 -- 88
2021-02-01 09:00:00 8.6 27 Norte 58 Norte 0 932.1 -- 91
2021-02-01 08:00:00 8.6 37 Norte 64 Norte 0 930.8 -- 92
2021-02-01 07:00:00 8.8 34 Norte 62 Noroeste 0 930 -- 92
2021-02-01 06:00:00 9.1 39 Norte 59 Norte 0 929.8 -- 92
2021-02-01 05:00:00 9.2 38 Norte 59 Norte 0.2 929.5 -- 93
2021-02-01 04:00:00 9.3 36 Norte 60 Norte 0 929.1 -- 94
2021-02-01 03:00:00 9.6 31 Norte 46 Norte 0 929.6 -- 95
2021-02-01 02:00:00 10.2 32 Norte 47 Norte 0 929.5 -- 95
2021-02-01 01:00:00 10.9 26 Norte 55 Norte 0 930 -- 95
2021-02-01 00:00:00 11 39 Norte 60 Norte 0 929.7 -- 97
2021-01-31 23:00:00 10.9 39 Norte 56 Norte 0.2 929.4 -- 97
2021-01-31 22:00:00 10.8 40 Norte 61 Norte 0 929.6 -- 97
2021-01-31 21:00:00 10.6 43 Norte 58 Norte 0.2 929.2 -- 98
2021-01-31 20:00:00 10.3 37 Norte 63 Norte 0 929.4 -- 97
2021-01-31 19:00:00 10.1 43 Norte 64 Norte 0 929.6 -- 96
2021-01-31 18:00:00 9.9 40 Norte 65 Norte 0 929.5 -- 95
2021-01-31 17:00:00 9.7 42 Norte 60 Norte 0.4 929.7 -- 95
2021-01-31 16:00:00 9.3 39 Norte 56 Noroeste 0.8 929.8 -- 96
2021-01-31 15:00:00 9 38 Norte 59 Norte 0.4 929.9 -- 97
2021-01-31 14:00:00 8.7 36 Norte 60 Noroeste 0.2 930.3 -- 96
2021-01-31 13:00:00 8.4 41 Norte 62 Norte 0 930.9 -- 93
2021-01-31 12:00:00 7.7 36 Norte 60 Norte 0 931.5 -- 93
2021-01-31 11:00:00 8 39 Norte 60 Norte 0 931.4 -- 86
2021-01-31 10:00:00 7.5 37 Norte 54 Norte 0 931.1 -- 87
2021-01-31 09:00:00 5.9 35 Norte 50 Norte 0 930.7 -- 91
2021-01-31 08:00:00 5.6 31 Norte 45 Norte 0 930.5 -- 90
2021-01-31 07:00:00 5.5 27 Norte 45 Norte 0 930 -- 90
2021-01-31 06:00:00 5.6 29 Norte 40 Norte 0 929.5 -- 91
2021-01-31 05:00:00 6.2 27 Norte 43 Norte 0 929.5 -- 89
2021-01-31 04:00:00 6.6 30 Norte 47 Norte 0 929.3 -- 86
2021-01-31 03:00:00 6.7 33 Norte 52 Norte 0 929.4 -- 86
2021-01-31 02:00:00 6.8 31 Norte 49 Norte 0 929.5 -- 85
2021-01-31 01:00:00 6.8 27 Norte 50 Norte 0 929.6 -- 83
2021-01-31 00:00:00 7.2 33 Norte 56 Norte 0 928.8 -- 81
2021-01-30 23:00:00 7.8 39 Norte 61 Norte 0 928.8 -- 78
2021-01-30 22:00:00 7.9 36 Norte 55 Norte 0 928.8 -- 82
2021-01-30 21:00:00 8.4 33 Norte 52 Norte 0 928.9 -- 82
2021-01-30 20:00:00 8.4 32 Norte 49 Norte 0 928.2 -- 76
2021-01-30 19:00:00 9 35 Norte 61 Norte 0 928.3 -- 73
2021-01-30 18:00:00 10.1 38 Norte 66 Norte 0 927.8 -- 65
2021-01-30 17:00:00 10.6 37 Norte 61 Noroeste 0 927.8 -- 65
2021-01-30 16:00:00 11.2 37 Norte 68 Norte 0 927.9 -- 63
2021-01-30 15:00:00 11.7 45 Norte 69 Norte 0 928.3 -- 63
2021-01-30 14:00:00 11.4 44 Norte 65 Norte 0 928.8 -- 67
2021-01-30 13:00:00 10.8 39 Norte 63 Norte 0 929.5 -- 74
2021-01-30 12:00:00 10.9 37 Norte 63 Norte 4.8 930.1 -- 88
2021-01-30 11:00:00 9.2 36 Norte 60 Norte 3.2 930.4 -- 97
2021-01-30 10:00:00 9.3 39 Noroeste 58 Norte 0 930 -- 95
2021-01-30 09:00:00 9 34 Noroeste 55 Noroeste 1 930.5 -- 97
2021-01-30 08:00:00 9.3 37 Noroeste 59 Noroeste 0.2 930.7 -- 95
2021-01-30 07:00:00 9.5 27 Noroeste 44 Noroeste 0 931.1 -- 96
2021-01-30 06:00:00 9.4 31 Noroeste 41 Noroeste 0 931.4 -- 97
2021-01-30 05:00:00 9.5 17 Norte 28 Norte 0 932 -- 95
2021-01-30 04:00:00 9.5 18 Noroeste 26 Noroeste 0 932.1 -- 96
2021-01-30 03:00:00 8.7 9 Oeste 18 Oeste 0 932.7 -- 97
2021-01-30 02:00:00 6.1 2 Sudeste 7 Sudoeste 0 934.4 -- 95
2021-01-30 01:00:00 6.8 5 Oeste 10 Norte 0 935.4 -- 95
2021-01-30 00:00:00 7.3 8 Nordeste 13 Norte 0 935.5 -- 96